logo dgac
Viernes 12 de Abril del 2024
Buscar por aerodromo o helipuerto
Ingrese nombre de aeródromo, localidad o designador OACI:

Aeródromo: Santo Domingo (PUB) (SCSN)

Ubicación: Santo Domingo, V Región, Chile (33º 39' 24'' S, 71º 36' 57'' W) Ver ubicación en el mapa

Pistas

Luces
Orientación Dimensión Pendiente Superficie Resistencia APCH THR RWY PAPI
05/23 800 x 18 ASPH 5.700 Kg No No No
Horas de operación HJ
Elevación 75 m / 246 ft
Otra Información Adm : DGAC
Uso : PUB
TEL (56-2) 24363842
Ubicado a 1,5 km SE del balneario Rocas de Santo Domingo
email : aro.stodomingo@dgac.gob.cl

Otra información ver AIP-Chile Volumen I AD 3.9-18.7-S
CCCM/FCCV Descargar CCCM/FCCV
andera de Chile
Mapa de Santo Domingo (PUB) (SCSN)

Último METAR

METAR SCSN 121000Z AUTO VRB02KT 9999 NCD 10/10 Q1015

Último TAF

TAF SCSN 121027Z 1212/1224 VRB02KT 4000 BR SCT004 BKN100 TX16/1219Z TN09/1212Z TEMPO 1212/1215 35004KT 2000 DZ BR SCT002 OVC004 BECMG 1216/1218 30007KT 8000 SCT015 BKN120

Últimas fotos cámaras

Imagen aerodromo Santo Domingo (PUB) (SCSN) N-Este tomada el 12-04-2024 10:47:12 Imagen aerodromo Santo Domingo (PUB) (SCSN) S-Oeste tomada el 12-04-2024 10:47:12

Último NOTAM

C0899/24 NOTAMN Q)SCEZ/QFUAU/IV/NBO/A/000/999/3339S07137W005 A)SCSN B)2402291225 C)2405282359 E)AVGAS 100/130 NO AVBL